sensor_id;sensor_type;location;lat;lon;timestamp;temperature;humidity
37240;DHT22;23130;48.760;9.178;2022-08-04T00:01:03;22.30;94.10
37240;DHT22;23130;48.760;9.178;2022-08-04T00:03:57;22.30;94.50
37240;DHT22;23130;48.760;9.178;2022-08-04T00:09:22;22.20;94.40
37240;DHT22;23130;48.760;9.178;2022-08-04T00:11:52;22.20;94.50
37240;DHT22;23130;48.760;9.178;2022-08-04T00:14:18;22.20;94.60
37240;DHT22;23130;48.760;9.178;2022-08-04T00:16:46;22.30;95.10
37240;DHT22;23130;48.760;9.178;2022-08-04T00:19:21;22.30;95.20
37240;DHT22;23130;48.760;9.178;2022-08-04T00:21:59;22.20;95.90
37240;DHT22;23130;48.760;9.178;2022-08-04T00:24:29;22.00;96.20
37240;DHT22;23130;48.760;9.178;2022-08-04T00:26:55;21.90;96.30
37240;DHT22;23130;48.760;9.178;2022-08-04T00:29:22;21.80;96.30
37240;DHT22;23130;48.760;9.178;2022-08-04T00:31:48;21.70;96.40
37240;DHT22;23130;48.760;9.178;2022-08-04T00:34:15;21.70;96.40
37240;DHT22;23130;48.760;9.178;2022-08-04T00:36:44;21.60;96.50
37240;DHT22;23130;48.760;9.178;2022-08-04T00:39:13;21.60;96.70
37240;DHT22;23130;48.760;9.178;2022-08-04T00:50:27;21.40;97.20
37240;DHT22;23130;48.760;9.178;2022-08-04T00:53:06;21.40;95.70
37240;DHT22;23130;48.760;9.178;2022-08-04T01:01:05;22.10;94.70
37240;DHT22;23130;48.760;9.178;2022-08-04T01:06:43;22.40;94.60
37240;DHT22;23130;48.760;9.178;2022-08-04T01:09:17;22.50;94.70
37240;DHT22;23130;48.760;9.178;2022-08-04T01:20:04;22.60;94.30
37240;DHT22;23130;48.760;9.178;2022-08-04T01:25:22;22.50;94.50
37240;DHT22;23130;48.760;9.178;2022-08-04T01:28:22;22.40;94.80
37240;DHT22;23130;48.760;9.178;2022-08-04T01:30:58;22.20;95.10
37240;DHT22;23130;48.760;9.178;2022-08-04T01:33:28;22.10;95.80
37240;DHT22;23130;48.760;9.178;2022-08-04T01:35:56;21.90;96.30
37240;DHT22;23130;48.760;9.178;2022-08-04T01:38:28;21.80;96.90
37240;DHT22;23130;48.760;9.178;2022-08-04T01:41:08;21.70;97.30
37240;DHT22;23130;48.760;9.178;2022-08-04T01:43:41;21.60;97.80
37240;DHT22;23130;48.760;9.178;2022-08-04T01:46:10;21.60;98.10
37240;DHT22;23130;48.760;9.178;2022-08-04T01:48:38;21.60;98.00
37240;DHT22;23130;48.760;9.178;2022-08-04T01:51:05;21.70;98.10
37240;DHT22;23130;48.760;9.178;2022-08-04T01:53:37;21.70;98.30
37240;DHT22;23130;48.760;9.178;2022-08-04T01:56:06;21.70;98.80
37240;DHT22;23130;48.760;9.178;2022-08-04T01:58:34;21.50;99.40
37240;DHT22;23130;48.760;9.178;2022-08-04T02:03:31;21.40;99.80
37240;DHT22;23130;48.760;9.178;2022-08-04T02:06:10;21.30;99.90
37240;DHT22;23130;48.760;9.178;2022-08-04T02:11:21;21.20;99.90
37240;DHT22;23130;48.760;9.178;2022-08-04T02:14:01;21.10;99.90
37240;DHT22;23130;48.760;9.178;2022-08-04T02:16:40;21.00;99.90
37240;DHT22;23130;48.760;9.178;2022-08-04T02:19:13;21.00;99.90
37240;DHT22;23130;48.760;9.178;2022-08-04T02:21:41;21.00;99.90
37240;DHT22;23130;48.760;9.178;2022-08-04T02:24:14;21.00;99.90
37240;DHT22;23130;48.760;9.178;2022-08-04T02:26:41;21.00;99.90
37240;DHT22;23130;48.760;9.178;2022-08-04T02:37:05;20.90;99.90
37240;DHT22;23130;48.760;9.178;2022-08-04T02:39:33;20.90;99.90
37240;DHT22;23130;48.760;9.178;2022-08-04T02:42:01;20.80;99.90
37240;DHT22;23130;48.760;9.178;2022-08-04T02:44:29;20.90;99.90
37240;DHT22;23130;48.760;9.178;2022-08-04T02:46:56;20.80;99.90
37240;DHT22;23130;48.760;9.178;2022-08-04T02:49:22;20.70;99.90
37240;DHT22;23130;48.760;9.178;2022-08-04T02:51:52;20.80;99.90
37240;DHT22;23130;48.760;9.178;2022-08-04T02:54:26;20.70;99.90
37240;DHT22;23130;48.760;9.178;2022-08-04T02:56:54;20.70;99.90
37240;DHT22;23130;48.760;9.178;2022-08-04T02:59:25;20.70;99.90
37240;DHT22;23130;48.760;9.178;2022-08-04T03:01:54;20.70;99.90
37240;DHT22;23130;48.760;9.178;2022-08-04T03:04:40;20.70;99.90
37240;DHT22;23130;48.760;9.178;2022-08-04T03:21:59;20.40;99.90
37240;DHT22;23130;48.760;9.178;2022-08-04T03:30:13;20.10;99.90
37240;DHT22;23130;48.760;9.178;2022-08-04T03:41:47;20.00;99.90
37240;DHT22;23130;48.760;9.178;2022-08-04T04:06:58;20.00;99.90
37240;DHT22;23130;48.760;9.178;2022-08-04T04:12:51;19.90;99.90
37240;DHT22;23130;48.760;9.178;2022-08-04T04:18:17;20.10;99.90
37240;DHT22;23130;48.760;9.178;2022-08-04T04:35:37;20.40;99.90
37240;DHT22;23130;48.760;9.178;2022-08-04T04:46:45;20.80;99.90
37240;DHT22;23130;48.760;9.178;2022-08-04T04:55:07;21.10;99.90
37240;DHT22;23130;48.760;9.178;2022-08-04T04:57:35;21.20;99.90
37240;DHT22;23130;48.760;9.178;2022-08-04T05:00:07;21.40;99.90
37240;DHT22;23130;48.760;9.178;2022-08-04T05:11:11;26.00;97.60
37240;DHT22;23130;48.760;9.178;2022-08-04T05:13:51;27.40;95.30
37240;DHT22;23130;48.760;9.178;2022-08-04T05:16:19;28.40;93.60
37240;DHT22;23130;48.760;9.178;2022-08-04T05:18:48;29.10;92.60
37240;DHT22;23130;48.760;9.178;2022-08-04T05:24:00;29.90;90.40
37240;DHT22;23130;48.760;9.178;2022-08-04T05:26:31;29.80;90.60
37240;DHT22;23130;48.760;9.178;2022-08-04T05:29:03;30.20;90.20
37240;DHT22;23130;48.760;9.178;2022-08-04T05:31:35;30.60;88.90
37240;DHT22;23130;48.760;9.178;2022-08-04T05:34:08;30.50;89.00
37240;DHT22;23130;48.760;9.178;2022-08-04T05:36:57;31.00;87.90
37240;DHT22;23130;48.760;9.178;2022-08-04T05:39:25;31.30;86.50
37240;DHT22;23130;48.760;9.178;2022-08-04T05:41:51;31.00;86.40
37240;DHT22;23130;48.760;9.178;2022-08-04T05:44:19;30.90;86.80
37240;DHT22;23130;48.760;9.178;2022-08-04T05:46:48;30.90;86.40
37240;DHT22;23130;48.760;9.178;2022-08-04T05:49:16;31.20;87.60
37240;DHT22;23130;48.760;9.178;2022-08-04T05:51:43;31.30;86.30
37240;DHT22;23130;48.760;9.178;2022-08-04T05:54:09;31.70;84.10
37240;DHT22;23130;48.760;9.178;2022-08-04T05:56:36;31.60;84.20
37240;DHT22;23130;48.760;9.178;2022-08-04T05:59:03;31.90;83.70
37240;DHT22;23130;48.760;9.178;2022-08-04T06:01:30;32.30;83.80
37240;DHT22;23130;48.760;9.178;2022-08-04T06:03:59;32.50;82.30
37240;DHT22;23130;48.760;9.178;2022-08-04T06:06:27;32.80;81.90
37240;DHT22;23130;48.760;9.178;2022-08-04T06:08:54;32.90;81.70
37240;DHT22;23130;48.760;9.178;2022-08-04T06:11:20;33.60;80.90
37240;DHT22;23130;48.760;9.178;2022-08-04T06:13:50;33.90;80.00
37240;DHT22;23130;48.760;9.178;2022-08-04T06:16:21;33.70;81.10
37240;DHT22;23130;48.760;9.178;2022-08-04T06:18:49;33.80;79.60
37240;DHT22;23130;48.760;9.178;2022-08-04T06:21:20;33.90;78.90
37240;DHT22;23130;48.760;9.178;2022-08-04T06:23:48;34.20;79.20
37240;DHT22;23130;48.760;9.178;2022-08-04T06:26:14;34.20;78.30
37240;DHT22;23130;48.760;9.178;2022-08-04T06:28:49;34.20;78.00
37240;DHT22;23130;48.760;9.178;2022-08-04T06:31:17;34.10;78.40
37240;DHT22;23130;48.760;9.178;2022-08-04T06:34:06;34.40;77.50
37240;DHT22;23130;48.760;9.178;2022-08-04T06:36:33;34.50;77.00
37240;DHT22;23130;48.760;9.178;2022-08-04T06:39:03;34.30;77.80
37240;DHT22;23130;48.760;9.178;2022-08-04T06:41:29;33.90;78.40
37240;DHT22;23130;48.760;9.178;2022-08-04T06:44:00;34.80;78.70
37240;DHT22;23130;48.760;9.178;2022-08-04T06:46:27;35.00;78.30
37240;DHT22;23130;48.760;9.178;2022-08-04T06:48:54;34.80;76.80
37240;DHT22;23130;48.760;9.178;2022-08-04T06:51:22;35.30;76.80
37240;DHT22;23130;48.760;9.178;2022-08-04T06:53:48;34.80;77.20
37240;DHT22;23130;48.760;9.178;2022-08-04T06:56:16;34.60;77.10
37240;DHT22;23130;48.760;9.178;2022-08-04T06:58:45;34.60;76.10
37240;DHT22;23130;48.760;9.178;2022-08-04T07:01:12;34.80;75.80
37240;DHT22;23130;48.760;9.178;2022-08-04T07:03:38;35.50;75.80
37240;DHT22;23130;48.760;9.178;2022-08-04T07:06:04;35.70;75.20
37240;DHT22;23130;48.760;9.178;2022-08-04T07:08:30;35.80;75.20
37240;DHT22;23130;48.760;9.178;2022-08-04T07:10:56;35.70;74.10
37240;DHT22;23130;48.760;9.178;2022-08-04T07:13:23;35.30;74.70
37240;DHT22;23130;48.760;9.178;2022-08-04T07:15:50;35.80;76.30
37240;DHT22;23130;48.760;9.178;2022-08-04T07:18:16;35.90;76.20
37240;DHT22;23130;48.760;9.178;2022-08-04T07:20:43;36.20;75.60
37240;DHT22;23130;48.760;9.178;2022-08-04T07:23:10;36.10;74.60
37240;DHT22;23130;48.760;9.178;2022-08-04T07:25:42;36.40;74.70
37240;DHT22;23130;48.760;9.178;2022-08-04T07:28:08;36.40;73.90
37240;DHT22;23130;48.760;9.178;2022-08-04T07:30:34;36.00;75.20
37240;DHT22;23130;48.760;9.178;2022-08-04T07:33:00;35.80;75.30
37240;DHT22;23130;48.760;9.178;2022-08-04T07:35:27;35.80;75.50
37240;DHT22;23130;48.760;9.178;2022-08-04T07:37:53;35.60;76.50
37240;DHT22;23130;48.760;9.178;2022-08-04T07:40:19;35.40;75.70
37240;DHT22;23130;48.760;9.178;2022-08-04T07:42:45;35.20;76.20
37240;DHT22;23130;48.760;9.178;2022-08-04T07:45:11;35.60;75.50
37240;DHT22;23130;48.760;9.178;2022-08-04T07:47:37;35.60;75.30
37240;DHT22;23130;48.760;9.178;2022-08-04T07:50:08;36.00;74.00
37240;DHT22;23130;48.760;9.178;2022-08-04T07:52:34;36.10;74.80
37240;DHT22;23130;48.760;9.178;2022-08-04T07:55:01;35.70;74.20
37240;DHT22;23130;48.760;9.178;2022-08-04T07:57:27;35.20;74.00
37240;DHT22;23130;48.760;9.178;2022-08-04T07:59:53;35.40;75.70
37240;DHT22;23130;48.760;9.178;2022-08-04T08:02:19;35.40;75.80
37240;DHT22;23130;48.760;9.178;2022-08-04T08:04:46;35.90;74.50
37240;DHT22;23130;48.760;9.178;2022-08-04T08:07:12;35.80;74.70
37240;DHT22;23130;48.760;9.178;2022-08-04T08:09:38;35.70;74.40
37240;DHT22;23130;48.760;9.178;2022-08-04T08:12:06;35.80;75.40
37240;DHT22;23130;48.760;9.178;2022-08-04T08:14:32;35.60;76.40
37240;DHT22;23130;48.760;9.178;2022-08-04T08:17:00;35.50;77.20
37240;DHT22;23130;48.760;9.178;2022-08-04T08:19:32;35.50;74.90
37240;DHT22;23130;48.760;9.178;2022-08-04T08:21:59;35.20;74.80
37240;DHT22;23130;48.760;9.178;2022-08-04T08:24:25;35.20;76.30
37240;DHT22;23130;48.760;9.178;2022-08-04T08:26:51;34.80;75.70
37240;DHT22;23130;48.760;9.178;2022-08-04T08:29:17;34.30;77.70
37240;DHT22;23130;48.760;9.178;2022-08-04T08:31:44;33.80;78.50
37240;DHT22;23130;48.760;9.178;2022-08-04T08:34:10;33.50;79.30
37240;DHT22;23130;48.760;9.178;2022-08-04T08:36:49;33.20;79.80
37240;DHT22;23130;48.760;9.178;2022-08-04T08:39:38;32.70;78.80
37240;DHT22;23130;48.760;9.178;2022-08-04T08:50:26;32.20;81.50
37240;DHT22;23130;48.760;9.178;2022-08-04T08:55:33;32.20;82.90
37240;DHT22;23130;48.760;9.178;2022-08-04T08:58:22;32.20;82.60
37240;DHT22;23130;48.760;9.178;2022-08-04T09:00:51;32.30;82.50
37240;DHT22;23130;48.760;9.178;2022-08-04T09:03:37;32.40;82.10
37240;DHT22;23130;48.760;9.178;2022-08-04T09:09:26;32.40;82.90
37240;DHT22;23130;48.760;9.178;2022-08-04T09:12:21;32.50;82.40
37240;DHT22;23130;48.760;9.178;2022-08-04T09:15:06;32.50;81.80
37240;DHT22;23130;48.760;9.178;2022-08-04T09:17:51;32.50;80.90
37240;DHT22;23130;48.760;9.178;2022-08-04T09:23:16;32.60;80.00
37240;DHT22;23130;48.760;9.178;2022-08-04T09:25:56;32.70;83.10
37240;DHT22;23130;48.760;9.178;2022-08-04T09:28:25;32.70;82.10
37240;DHT22;23130;48.760;9.178;2022-08-04T09:33:49;32.70;79.50
37240;DHT22;23130;48.760;9.178;2022-08-04T09:36:36;32.90;78.70
37240;DHT22;23130;48.760;9.178;2022-08-04T09:42:10;33.10;81.00
37240;DHT22;23130;48.760;9.178;2022-08-04T09:47:30;33.10;78.70
37240;DHT22;23130;48.760;9.178;2022-08-04T09:58:10;33.70;77.40
37240;DHT22;23130;48.760;9.178;2022-08-04T10:00:50;33.80;77.40
37240;DHT22;23130;48.760;9.178;2022-08-04T10:03:18;33.90;78.20
37240;DHT22;23130;48.760;9.178;2022-08-04T10:05:59;33.90;74.00
37240;DHT22;23130;48.760;9.178;2022-08-04T10:11:15;34.10;76.00
37240;DHT22;23130;48.760;9.178;2022-08-04T10:14:50;34.20;74.50
37240;DHT22;23130;48.760;9.178;2022-08-04T10:17:11;34.20;74.80
37240;DHT22;23130;48.760;9.178;2022-08-04T10:19:40;34.20;74.40
37240;DHT22;23130;48.760;9.178;2022-08-04T10:22:25;34.40;73.10
37240;DHT22;23130;48.760;9.178;2022-08-04T10:27:39;34.20;72.50
37240;DHT22;23130;48.760;9.178;2022-08-04T10:30:07;34.30;74.50
37240;DHT22;23130;48.760;9.178;2022-08-04T10:35:20;34.70;71.20
37240;DHT22;23130;48.760;9.178;2022-08-04T10:40:59;34.80;71.50
37240;DHT22;23130;48.760;9.178;2022-08-04T10:51:18;34.70;69.90
37240;DHT22;23130;48.760;9.178;2022-08-04T10:53:51;34.60;69.10
37240;DHT22;23130;48.760;9.178;2022-08-04T10:56:35;34.50;69.00
37240;DHT22;23130;48.760;9.178;2022-08-04T10:59:09;34.60;69.40
37240;DHT22;23130;48.760;9.178;2022-08-04T11:01:39;34.70;69.90
37240;DHT22;23130;48.760;9.178;2022-08-04T11:04:14;34.90;68.40
37240;DHT22;23130;48.760;9.178;2022-08-04T11:06:42;35.00;69.70
37240;DHT22;23130;48.760;9.178;2022-08-04T11:09:10;35.10;69.20
37240;DHT22;23130;48.760;9.178;2022-08-04T11:11:40;35.10;68.30
37240;DHT22;23130;48.760;9.178;2022-08-04T11:14:11;35.10;68.50
37240;DHT22;23130;48.760;9.178;2022-08-04T11:16:45;35.20;68.90
37240;DHT22;23130;48.760;9.178;2022-08-04T11:19:41;35.40;68.30
37240;DHT22;23130;48.760;9.178;2022-08-04T11:22:21;35.50;68.00
37240;DHT22;23130;48.760;9.178;2022-08-04T11:25:23;35.70;68.60
37240;DHT22;23130;48.760;9.178;2022-08-04T11:30:24;35.80;65.20
37240;DHT22;23130;48.760;9.178;2022-08-04T11:33:04;35.50;66.30
37240;DHT22;23130;48.760;9.178;2022-08-04T11:38:08;35.50;66.70
37240;DHT22;23130;48.760;9.178;2022-08-04T11:40:42;35.50;67.00
37240;DHT22;23130;48.760;9.178;2022-08-04T11:43:12;35.70;65.40
37240;DHT22;23130;48.760;9.178;2022-08-04T11:45:59;35.70;65.50
37240;DHT22;23130;48.760;9.178;2022-08-04T11:48:35;35.60;65.20
37240;DHT22;23130;48.760;9.178;2022-08-04T11:51:02;35.60;65.90
37240;DHT22;23130;48.760;9.178;2022-08-04T11:53:30;35.60;65.80
37240;DHT22;23130;48.760;9.178;2022-08-04T11:55:59;35.80;66.10
37240;DHT22;23130;48.760;9.178;2022-08-04T11:58:26;35.90;65.20
37240;DHT22;23130;48.760;9.178;2022-08-04T12:06:12;35.60;65.10
37240;DHT22;23130;48.760;9.178;2022-08-04T12:09:16;35.80;64.40
37240;DHT22;23130;48.760;9.178;2022-08-04T12:12:27;35.60;64.80
37240;DHT22;23130;48.760;9.178;2022-08-04T12:15:13;35.10;64.60
37240;DHT22;23130;48.760;9.178;2022-08-04T12:18:09;34.70;65.20
37240;DHT22;23130;48.760;9.178;2022-08-04T12:20:46;34.50;65.60
37240;DHT22;23130;48.760;9.178;2022-08-04T12:23:25;34.60;66.60
37240;DHT22;23130;48.760;9.178;2022-08-04T12:25:59;34.90;66.40
37240;DHT22;23130;48.760;9.178;2022-08-04T12:33:58;35.20;65.30
37240;DHT22;23130;48.760;9.178;2022-08-04T12:39:29;35.60;65.80
37240;DHT22;23130;48.760;9.178;2022-08-04T12:42:18;35.70;64.50
37240;DHT22;23130;48.760;9.178;2022-08-04T12:44:47;35.60;65.50
37240;DHT22;23130;48.760;9.178;2022-08-04T12:47:24;35.30;64.90
37240;DHT22;23130;48.760;9.178;2022-08-04T12:49:51;35.30;64.70
37240;DHT22;23130;48.760;9.178;2022-08-04T12:52:18;35.30;64.60
37240;DHT22;23130;48.760;9.178;2022-08-04T12:54:46;35.30;64.20
37240;DHT22;23130;48.760;9.178;2022-08-04T12:57:13;35.50;64.40
37240;DHT22;23130;48.760;9.178;2022-08-04T12:59:45;35.40;64.10
37240;DHT22;23130;48.760;9.178;2022-08-04T13:02:17;35.40;64.50
37240;DHT22;23130;48.760;9.178;2022-08-04T13:04:48;35.50;65.00
37240;DHT22;23130;48.760;9.178;2022-08-04T13:07:18;35.60;64.00
37240;DHT22;23130;48.760;9.178;2022-08-04T13:09:45;35.70;64.90
37240;DHT22;23130;48.760;9.178;2022-08-04T13:12:13;35.90;63.50
37240;DHT22;23130;48.760;9.178;2022-08-04T13:14:41;35.80;64.00
37240;DHT22;23130;48.760;9.178;2022-08-04T13:17:10;35.60;63.80
37240;DHT22;23130;48.760;9.178;2022-08-04T13:19:36;35.70;63.50
37240;DHT22;23130;48.760;9.178;2022-08-04T13:22:03;35.50;63.30
37240;DHT22;23130;48.760;9.178;2022-08-04T13:24:30;35.60;64.10
37240;DHT22;23130;48.760;9.178;2022-08-04T13:27:04;35.90;63.40
37240;DHT22;23130;48.760;9.178;2022-08-04T13:29:38;35.80;63.10
37240;DHT22;23130;48.760;9.178;2022-08-04T13:32:05;35.70;63.90
37240;DHT22;23130;48.760;9.178;2022-08-04T13:34:32;35.80;63.00
37240;DHT22;23130;48.760;9.178;2022-08-04T13:36:59;35.90;63.60
37240;DHT22;23130;48.760;9.178;2022-08-04T13:39:27;36.00;62.60
37240;DHT22;23130;48.760;9.178;2022-08-04T13:42:04;35.90;63.50
37240;DHT22;23130;48.760;9.178;2022-08-04T13:44:34;36.20;63.70
37240;DHT22;23130;48.760;9.178;2022-08-04T13:47:05;36.30;62.90
37240;DHT22;23130;48.760;9.178;2022-08-04T13:49:31;36.40;62.20
37240;DHT22;23130;48.760;9.178;2022-08-04T13:52:02;36.20;62.40
37240;DHT22;23130;48.760;9.178;2022-08-04T13:54:44;36.00;61.80
37240;DHT22;23130;48.760;9.178;2022-08-04T13:57:20;35.90;62.10
37240;DHT22;23130;48.760;9.178;2022-08-04T13:59:51;35.80;62.50
37240;DHT22;23130;48.760;9.178;2022-08-04T14:02:45;35.70;61.80
37240;DHT22;23130;48.760;9.178;2022-08-04T14:05:20;35.60;61.90
37240;DHT22;23130;48.760;9.178;2022-08-04T14:07:51;35.80;63.00
37240;DHT22;23130;48.760;9.178;2022-08-04T14:10:18;35.80;62.30
37240;DHT22;23130;48.760;9.178;2022-08-04T14:12:46;36.00;62.40
37240;DHT22;23130;48.760;9.178;2022-08-04T14:15:39;36.20;63.10
37240;DHT22;23130;48.760;9.178;2022-08-04T14:18:26;36.40;62.00
37240;DHT22;23130;48.760;9.178;2022-08-04T14:23:36;36.50;61.30
37240;DHT22;23130;48.760;9.178;2022-08-04T14:26:33;36.30;61.40
37240;DHT22;23130;48.760;9.178;2022-08-04T14:29:15;36.30;61.30
37240;DHT22;23130;48.760;9.178;2022-08-04T14:31:43;36.20;61.10
37240;DHT22;23130;48.760;9.178;2022-08-04T14:34:24;36.20;61.70
37240;DHT22;23130;48.760;9.178;2022-08-04T14:36:49;36.50;61.30
37240;DHT22;23130;48.760;9.178;2022-08-04T14:39:15;36.50;61.40
37240;DHT22;23130;48.760;9.178;2022-08-04T14:41:46;36.50;61.40
37240;DHT22;23130;48.760;9.178;2022-08-04T14:44:13;36.60;61.30
37240;DHT22;23130;48.760;9.178;2022-08-04T14:46:55;36.70;60.60
37240;DHT22;23130;48.760;9.178;2022-08-04T14:49:23;36.80;61.70
37240;DHT22;23130;48.760;9.178;2022-08-04T14:54:23;36.90;60.30
37240;DHT22;23130;48.760;9.178;2022-08-04T14:56:55;36.70;60.40
37240;DHT22;23130;48.760;9.178;2022-08-04T14:59:23;36.70;61.80
37240;DHT22;23130;48.760;9.178;2022-08-04T15:01:49;36.70;60.00
37240;DHT22;23130;48.760;9.178;2022-08-04T15:04:15;36.70;59.90
37240;DHT22;23130;48.760;9.178;2022-08-04T15:06:42;36.80;60.10
37240;DHT22;23130;48.760;9.178;2022-08-04T15:09:09;36.70;60.40
37240;DHT22;23130;48.760;9.178;2022-08-04T15:11:37;36.70;61.00
37240;DHT22;23130;48.760;9.178;2022-08-04T15:14:03;36.80;61.00
37240;DHT22;23130;48.760;9.178;2022-08-04T15:16:30;36.70;60.30
37240;DHT22;23130;48.760;9.178;2022-08-04T15:18:57;36.70;60.50
37240;DHT22;23130;48.760;9.178;2022-08-04T15:21:25;36.70;60.80
37240;DHT22;23130;48.760;9.178;2022-08-04T15:23:52;36.60;60.30
37240;DHT22;23130;48.760;9.178;2022-08-04T15:26:30;36.50;60.10
37240;DHT22;23130;48.760;9.178;2022-08-04T15:29:06;36.40;60.10
37240;DHT22;23130;48.760;9.178;2022-08-04T15:31:37;36.40;60.80
37240;DHT22;23130;48.760;9.178;2022-08-04T15:34:05;36.50;61.40
37240;DHT22;23130;48.760;9.178;2022-08-04T15:42:14;36.30;60.70
37240;DHT22;23130;48.760;9.178;2022-08-04T15:47:30;35.90;60.60
37240;DHT22;23130;48.760;9.178;2022-08-04T15:50:10;35.80;60.70
37240;DHT22;23130;48.760;9.178;2022-08-04T15:55:38;35.60;60.70
37240;DHT22;23130;48.760;9.178;2022-08-04T15:58:05;35.60;61.20
37240;DHT22;23130;48.760;9.178;2022-08-04T16:21:34;35.70;61.70
37240;DHT22;23130;48.760;9.178;2022-08-04T16:37:22;35.30;61.60
37240;DHT22;23130;48.760;9.178;2022-08-04T16:39:48;35.10;61.90
37240;DHT22;23130;48.760;9.178;2022-08-04T16:45:18;34.90;62.10
37240;DHT22;23130;48.760;9.178;2022-08-04T16:50:13;34.80;61.60
37240;DHT22;23130;48.760;9.178;2022-08-04T16:55:14;34.70;62.40
37240;DHT22;23130;48.760;9.178;2022-08-04T16:57:45;34.70;62.20
37240;DHT22;23130;48.760;9.178;2022-08-04T17:00:11;34.70;62.40
37240;DHT22;23130;48.760;9.178;2022-08-04T17:02:36;34.70;62.30
37240;DHT22;23130;48.760;9.178;2022-08-04T17:05:02;34.70;62.00
37240;DHT22;23130;48.760;9.178;2022-08-04T17:07:28;34.60;62.40
37240;DHT22;23130;48.760;9.178;2022-08-04T17:09:53;34.60;62.30
37240;DHT22;23130;48.760;9.178;2022-08-04T17:12:27;34.60;62.10
37240;DHT22;23130;48.760;9.178;2022-08-04T17:14:52;34.50;62.70
37240;DHT22;23130;48.760;9.178;2022-08-04T17:17:21;34.50;63.20
37240;DHT22;23130;48.760;9.178;2022-08-04T17:19:53;34.40;62.50
37240;DHT22;23130;48.760;9.178;2022-08-04T17:22:18;34.40;63.00
37240;DHT22;23130;48.760;9.178;2022-08-04T17:24:44;34.40;62.60
37240;DHT22;23130;48.760;9.178;2022-08-04T17:27:10;34.30;62.70
37240;DHT22;23130;48.760;9.178;2022-08-04T17:29:36;34.30;62.80
37240;DHT22;23130;48.760;9.178;2022-08-04T17:32:02;34.20;62.40
37240;DHT22;23130;48.760;9.178;2022-08-04T17:34:28;34.20;62.40
37240;DHT22;23130;48.760;9.178;2022-08-04T17:36:54;34.10;63.60
37240;DHT22;23130;48.760;9.178;2022-08-04T17:39:20;34.10;63.10
37240;DHT22;23130;48.760;9.178;2022-08-04T17:41:54;34.00;63.60
37240;DHT22;23130;48.760;9.178;2022-08-04T17:44:20;33.90;63.90
37240;DHT22;23130;48.760;9.178;2022-08-04T17:47:06;33.80;63.70
37240;DHT22;23130;48.760;9.178;2022-08-04T17:49:33;33.60;63.50
37240;DHT22;23130;48.760;9.178;2022-08-04T17:51:59;33.60;64.40
37240;DHT22;23130;48.760;9.178;2022-08-04T17:54:36;33.50;65.20
37240;DHT22;23130;48.760;9.178;2022-08-04T18:02:04;33.20;65.80
37240;DHT22;23130;48.760;9.178;2022-08-04T18:04:48;33.20;66.70
37240;DHT22;23130;48.760;9.178;2022-08-04T18:07:19;33.00;66.80
37240;DHT22;23130;48.760;9.178;2022-08-04T18:09:48;32.90;67.30
37240;DHT22;23130;48.760;9.178;2022-08-04T18:14:52;32.70;66.90
37240;DHT22;23130;48.760;9.178;2022-08-04T18:17:32;32.60;67.70
37240;DHT22;23130;48.760;9.178;2022-08-04T18:19:58;32.50;67.30
37240;DHT22;23130;48.760;9.178;2022-08-04T18:22:24;32.40;67.60
37240;DHT22;23130;48.760;9.178;2022-08-04T18:24:49;32.20;67.50
37240;DHT22;23130;48.760;9.178;2022-08-04T18:27:17;32.10;68.10
37240;DHT22;23130;48.760;9.178;2022-08-04T18:29:43;31.90;67.80
37240;DHT22;23130;48.760;9.178;2022-08-04T18:32:09;31.80;68.00
37240;DHT22;23130;48.760;9.178;2022-08-04T18:34:35;31.70;68.30
37240;DHT22;23130;48.760;9.178;2022-08-04T18:37:01;31.50;68.30
37240;DHT22;23130;48.760;9.178;2022-08-04T18:39:27;31.40;68.70
37240;DHT22;23130;48.760;9.178;2022-08-04T18:41:54;31.20;68.90
37240;DHT22;23130;48.760;9.178;2022-08-04T18:44:21;31.10;69.00
37240;DHT22;23130;48.760;9.178;2022-08-04T18:46:47;30.90;69.00
37240;DHT22;23130;48.760;9.178;2022-08-04T18:49:12;30.80;69.20
37240;DHT22;23130;48.760;9.178;2022-08-04T18:51:38;30.60;69.60
37240;DHT22;23130;48.760;9.178;2022-08-04T18:54:05;30.50;69.60
37240;DHT22;23130;48.760;9.178;2022-08-04T18:56:32;30.40;69.80
37240;DHT22;23130;48.760;9.178;2022-08-04T18:59:02;30.30;70.30
37240;DHT22;23130;48.760;9.178;2022-08-04T19:01:28;30.10;70.30
37240;DHT22;23130;48.760;9.178;2022-08-04T19:03:54;30.00;70.40
37240;DHT22;23130;48.760;9.178;2022-08-04T19:06:19;29.80;70.50
37240;DHT22;23130;48.760;9.178;2022-08-04T19:08:45;29.70;70.80
37240;DHT22;23130;48.760;9.178;2022-08-04T19:11:11;29.60;71.10
37240;DHT22;23130;48.760;9.178;2022-08-04T19:13:38;29.50;71.20
37240;DHT22;23130;48.760;9.178;2022-08-04T19:16:03;29.40;71.20
37240;DHT22;23130;48.760;9.178;2022-08-04T19:18:29;29.50;71.50
37240;DHT22;23130;48.760;9.178;2022-08-04T19:20:57;29.50;71.40
37240;DHT22;23130;48.760;9.178;2022-08-04T19:23:22;29.40;71.20
37240;DHT22;23130;48.760;9.178;2022-08-04T19:25:49;29.50;71.20
37240;DHT22;23130;48.760;9.178;2022-08-04T19:28:15;29.40;71.00
37240;DHT22;23130;48.760;9.178;2022-08-04T19:30:41;29.40;71.10
37240;DHT22;23130;48.760;9.178;2022-08-04T19:33:07;29.30;71.50
37240;DHT22;23130;48.760;9.178;2022-08-04T19:35:32;29.30;71.60
37240;DHT22;23130;48.760;9.178;2022-08-04T19:37:58;29.20;73.30
37240;DHT22;23130;48.760;9.178;2022-08-04T19:40:24;29.00;74.20
37240;DHT22;23130;48.760;9.178;2022-08-04T19:42:50;28.90;76.30
37240;DHT22;23130;48.760;9.178;2022-08-04T19:45:16;28.70;76.40
37240;DHT22;23130;48.760;9.178;2022-08-04T19:47:43;28.50;76.40
37240;DHT22;23130;48.760;9.178;2022-08-04T19:50:09;28.30;75.80
37240;DHT22;23130;48.760;9.178;2022-08-04T19:52:34;28.30;75.70
37240;DHT22;23130;48.760;9.178;2022-08-04T19:55:00;28.20;75.60
37240;DHT22;23130;48.760;9.178;2022-08-04T19:57:26;28.10;75.30
37240;DHT22;23130;48.760;9.178;2022-08-04T19:59:52;28.00;75.10
37240;DHT22;23130;48.760;9.178;2022-08-04T20:02:17;28.00;75.00
37240;DHT22;23130;48.760;9.178;2022-08-04T20:04:43;28.00;74.90
37240;DHT22;23130;48.760;9.178;2022-08-04T20:07:08;28.00;74.50
37240;DHT22;23130;48.760;9.178;2022-08-04T20:09:34;28.10;74.60
37240;DHT22;23130;48.760;9.178;2022-08-04T20:11:59;28.10;74.80
37240;DHT22;23130;48.760;9.178;2022-08-04T20:14:25;28.10;74.80
37240;DHT22;23130;48.760;9.178;2022-08-04T20:16:52;28.10;75.70
37240;DHT22;23130;48.760;9.178;2022-08-04T20:19:18;28.00;75.20
37240;DHT22;23130;48.760;9.178;2022-08-04T20:21:43;28.00;74.90
37240;DHT22;23130;48.760;9.178;2022-08-04T20:24:09;27.90;75.30
37240;DHT22;23130;48.760;9.178;2022-08-04T20:26:35;27.90;74.60
37240;DHT22;23130;48.760;9.178;2022-08-04T20:29:00;28.00;74.50
37240;DHT22;23130;48.760;9.178;2022-08-04T20:31:26;28.00;75.00
37240;DHT22;23130;48.760;9.178;2022-08-04T20:33:51;28.10;74.40